createdAt,value
2019-06-01T00:00:10.085Z,12.61
2019-06-01T00:00:53.200Z,12.51
2019-06-01T00:01:52.199Z,12.66
2019-06-01T00:02:55.843Z,12.61
2019-06-01T00:03:52.283Z,12.73
2019-06-01T00:04:52.150Z,12.78
2019-06-01T00:05:52.223Z,12.87
2019-06-01T00:06:52.133Z,12.84
2019-06-01T00:07:52.276Z,12.84
2019-06-01T00:08:52.106Z,12.86
2019-06-01T00:09:52.150Z,12.75
2019-06-01T00:10:52.078Z,12.78
2019-06-01T00:11:52.164Z,12.78
2019-06-01T00:12:52.087Z,12.62
2019-06-01T00:13:52.073Z,12.55
2019-06-01T00:14:52.041Z,12.44
2019-06-01T00:15:52.086Z,12.36
2019-06-01T00:16:52.015Z,12.47
2019-06-01T00:17:52.033Z,12.40
2019-06-01T00:18:51.998Z,12.35
2019-06-01T00:19:52.021Z,12.35
2019-06-01T00:20:52.732Z,12.32
2019-06-01T00:21:52.305Z,12.35
2019-06-01T00:22:51.964Z,12.39
2019-06-01T00:23:52.839Z,12.45
2019-06-01T00:24:52.264Z,12.45
2019-06-01T00:25:52.913Z,12.39
2019-06-01T00:26:52.120Z,12.51
2019-06-01T00:27:52.902Z,12.55
2019-06-01T00:28:53.024Z,12.47
2019-06-01T00:29:53.091Z,12.55
2019-06-01T00:30:52.078Z,12.55
2019-06-01T00:31:52.186Z,12.47
2019-06-01T00:32:51.848Z,12.45
2019-06-01T00:33:51.910Z,12.48
2019-06-01T00:34:51.926Z,12.39
2019-06-01T00:35:51.817Z,12.35
2019-06-01T00:36:52.039Z,12.32
2019-06-01T00:37:51.915Z,12.35
2019-06-01T00:38:52.146Z,12.40
2019-06-01T00:39:52.035Z,12.36
2019-06-01T00:40:52.075Z,12.35
2019-06-01T00:41:52.554Z,12.36
2019-06-01T00:42:52.464Z,12.32
2019-06-01T00:43:52.508Z,12.30
2019-06-01T00:44:52.514Z,12.21
2019-06-01T00:45:53.018Z,12.14
2019-06-01T00:46:52.786Z,12.14
2019-06-01T00:47:52.956Z,12.03
2019-06-01T00:48:52.120Z,11.97
2019-06-01T00:49:52.955Z,11.97
2019-06-01T00:50:51.629Z,12.02
2019-06-01T00:51:52.482Z,11.93
2019-06-01T00:52:51.622Z,11.97
2019-06-01T00:53:51.937Z,11.96
2019-06-01T00:54:51.778Z,11.99
2019-06-01T00:55:51.694Z,11.96
2019-06-01T00:56:51.766Z,11.85
2019-06-01T00:57:51.889Z,11.88
2019-06-01T00:58:52.003Z,11.81
2019-06-01T00:59:53.118Z,11.88
2019-06-01T01:00:53.423Z,11.80
2019-06-01T01:01:52.395Z,11.83
2019-06-01T01:02:52.220Z,11.83
2019-06-01T01:03:52.365Z,11.89
2019-06-01T01:04:52.494Z,11.85
2019-06-01T01:05:52.651Z,11.91
2019-06-01T01:06:52.711Z,11.97
2019-06-01T01:07:53.064Z,12.05
2019-06-01T01:08:51.426Z,11.99
2019-06-01T01:09:51.438Z,11.95
2019-06-01T01:10:51.407Z,11.88
2019-06-01T01:11:51.453Z,11.86
2019-06-01T01:12:51.380Z,11.83
2019-06-01T01:13:51.496Z,11.81
2019-06-01T01:14:51.380Z,11.91
2019-06-01T01:15:51.463Z,11.99
2019-06-01T01:16:51.691Z,11.97
2019-06-01T01:17:51.998Z,12.00
2019-06-01T01:18:51.944Z,12.03
2019-06-01T01:19:51.939Z,12.05
2019-06-01T01:20:52.054Z,12.05
2019-06-01T01:21:52.143Z,12.05
2019-06-01T01:22:52.241Z,11.99
2019-06-01T01:23:53.035Z,11.85
2019-06-01T01:24:52.323Z,11.81
2019-06-01T01:25:52.545Z,11.81
2019-06-01T01:26:51.238Z,11.76
2019-06-01T01:27:51.257Z,11.80
2019-06-01T01:28:51.222Z,11.76
2019-06-01T01:29:51.272Z,11.70
2019-06-01T01:31:05.546Z,11.78
2019-06-01T01:31:53.186Z,11.73
2019-06-01T01:32:51.773Z,11.80
2019-06-01T01:33:51.393Z,11.78
2019-06-01T01:34:51.555Z,11.77
2019-06-01T01:35:52.587Z,11.73
2019-06-01T01:36:52.722Z,11.70
2019-06-01T01:37:51.940Z,11.70
2019-06-01T01:38:52.224Z,11.67
2019-06-01T01:39:52.184Z,11.67
2019-06-01T01:40:52.105Z,11.74
2019-06-01T01:41:52.164Z,11.70
2019-06-01T01:42:52.273Z,11.58
2019-06-01T01:43:52.659Z,11.63
2019-06-01T01:44:51.066Z,11.58
2019-06-01T01:45:51.026Z,11.53
2019-06-01T01:46:51.092Z,11.63
2019-06-01T01:47:51.006Z,11.71
2019-06-01T01:48:51.964Z,11.58
2019-06-01T01:49:52.006Z,11.58
2019-06-01T01:50:52.287Z,11.55
2019-06-01T01:51:50.959Z,11.62
2019-06-01T01:52:51.026Z,11.65
2019-06-01T01:53:50.957Z,11.65
2019-06-01T01:54:51.039Z,11.63
2019-06-01T01:55:51.036Z,11.77
2019-06-01T01:56:52.073Z,11.85
2019-06-01T01:57:51.171Z,11.78
2019-06-01T01:58:52.197Z,11.74
2019-06-01T01:59:51.264Z,11.89
2019-06-01T02:00:52.949Z,11.85
2019-06-01T02:01:50.867Z,11.81
2019-06-01T02:02:51.831Z,11.85
2019-06-01T02:03:51.593Z,11.95
2019-06-01T02:04:51.687Z,11.97
2019-06-01T02:05:50.867Z,11.85
2019-06-01T02:06:51.850Z,11.85
2019-06-01T02:07:51.006Z,11.85
2019-06-01T02:08:53.371Z,11.88
2019-06-01T02:09:51.101Z,11.96
2019-06-01T02:10:51.198Z,11.86
2019-06-01T02:11:51.371Z,11.86
2019-06-01T02:12:51.346Z,11.81
2019-06-01T02:13:51.511Z,11.78
2019-06-01T02:14:51.647Z,11.83
2019-06-01T02:15:52.202Z,11.71
2019-06-01T02:16:51.970Z,11.70
2019-06-01T02:17:51.952Z,11.77
2019-06-01T02:18:53.838Z,11.77
2019-06-01T02:19:50.653Z,11.88
2019-06-01T02:20:50.693Z,11.76
2019-06-01T02:21:50.630Z,11.89
2019-06-01T02:22:50.711Z,11.99
2019-06-01T02:23:50.625Z,12.03
2019-06-01T02:24:50.633Z,12.00
2019-06-01T02:25:50.584Z,11.88
2019-06-01T02:26:50.636Z,11.99
2019-06-01T02:27:50.560Z,12.03
2019-06-01T02:28:50.575Z,11.97
2019-06-01T02:29:50.559Z,11.97
2019-06-01T02:30:50.668Z,12.02
2019-06-01T02:31:50.521Z,12.05
2019-06-01T02:32:50.577Z,12.02
2019-06-01T02:33:50.506Z,11.97
2019-06-01T02:34:50.598Z,11.96
2019-06-01T02:35:50.476Z,11.91
2019-06-01T02:36:50.505Z,11.99
2019-06-01T02:37:50.450Z,11.89
2019-06-01T02:38:50.544Z,11.96
2019-06-01T02:39:50.424Z,11.86
2019-06-01T02:40:50.547Z,11.85
2019-06-01T02:41:50.403Z,11.78
2019-06-01T02:42:50.435Z,11.86
2019-06-01T02:43:50.399Z,11.80
2019-06-01T02:44:50.454Z,11.78
2019-06-01T02:45:50.361Z,11.70
2019-06-01T02:46:50.378Z,11.70
2019-06-01T02:47:50.337Z,11.68
2019-06-01T02:48:50.407Z,11.55
2019-06-01T02:49:50.320Z,11.70
2019-06-01T02:50:50.399Z,11.71
2019-06-01T02:51:50.296Z,11.77
2019-06-01T02:52:50.300Z,11.80
2019-06-01T02:53:50.310Z,11.77
2019-06-01T02:54:50.313Z,11.78
2019-06-01T02:55:50.249Z,11.74
2019-06-01T02:56:50.328Z,11.83
2019-06-01T02:57:50.228Z,11.76
2019-06-01T02:58:50.242Z,11.76
2019-06-01T02:59:50.231Z,11.65
2019-06-01T03:00:50.252Z,11.65
2019-06-01T03:01:57.213Z,11.67
2019-06-01T03:02:51.172Z,11.65
2019-06-01T03:03:50.274Z,11.53
2019-06-01T03:04:50.166Z,11.55
2019-06-01T03:05:50.189Z,11.52
2019-06-01T03:06:50.126Z,11.63
2019-06-01T03:07:50.205Z,11.49
2019-06-01T03:08:50.105Z,11.45
2019-06-01T03:09:50.145Z,11.53
2019-06-01T03:10:50.082Z,11.56
2019-06-01T03:11:50.124Z,11.41
2019-06-01T03:12:50.061Z,11.48
2019-06-01T03:13:50.137Z,11.44
2019-06-01T03:14:50.051Z,11.45
2019-06-01T03:15:50.049Z,11.53
2019-06-01T03:16:50.019Z,11.60
2019-06-01T03:17:50.065Z,11.62
2019-06-01T03:18:49.994Z,11.62
2019-06-01T03:19:50.114Z,11.51
2019-06-01T03:20:49.972Z,11.53
2019-06-01T03:21:49.990Z,11.49
2019-06-01T03:22:49.949Z,11.53
2019-06-01T03:23:50.005Z,11.51
2019-06-01T03:24:49.953Z,11.53
2019-06-01T03:25:50.018Z,11.53
2019-06-01T03:26:49.949Z,11.60
2019-06-01T03:27:49.929Z,11.63
2019-06-01T03:28:49.885Z,11.63
2019-06-01T03:29:49.971Z,11.62
2019-06-01T03:30:49.867Z,11.60
2019-06-01T03:31:49.958Z,11.76
2019-06-01T03:32:49.858Z,11.67
2019-06-01T03:33:49.868Z,11.56
2019-06-01T03:34:49.831Z,11.62
2019-06-01T03:35:49.883Z,11.58
2019-06-01T03:36:49.792Z,11.63
2019-06-01T03:37:49.892Z,11.76
2019-06-01T03:38:49.771Z,11.70
2019-06-01T03:39:50.860Z,11.67
2019-06-01T03:40:49.749Z,11.68
2019-06-01T03:41:50.841Z,11.76
2019-06-01T03:42:49.726Z,11.86
2019-06-01T03:43:49.834Z,11.88
2019-06-01T03:44:49.726Z,11.85
2019-06-01T03:45:49.744Z,11.88
2019-06-01T03:46:49.680Z,11.89
2019-06-01T03:47:49.754Z,11.86
2019-06-01T03:48:49.660Z,11.88
2019-06-01T03:49:49.701Z,11.96
2019-06-01T03:50:49.638Z,11.97
2019-06-01T03:51:49.697Z,12.02
2019-06-01T03:52:49.614Z,12.05
2019-06-01T03:53:49.698Z,12.12
2019-06-01T03:54:49.605Z,12.17
2019-06-01T03:55:49.610Z,12.28
2019-06-01T03:56:49.566Z,12.20
2019-06-01T03:57:49.620Z,12.23
2019-06-01T03:58:49.545Z,12.35
2019-06-01T03:59:49.565Z,12.40
2019-06-01T04:00:49.525Z,12.35
2019-06-01T04:01:49.547Z,12.40
2019-06-01T04:02:49.501Z,12.40
2019-06-01T04:03:49.559Z,12.39
2019-06-01T04:04:49.493Z,12.37
2019-06-01T04:05:49.581Z,12.37
2019-06-01T04:06:49.465Z,12.47
2019-06-01T04:07:49.484Z,12.45
2019-06-01T04:08:49.433Z,12.50
2019-06-01T04:09:49.529Z,12.53
2019-06-01T04:10:49.409Z,12.63
2019-06-01T04:11:49.518Z,12.65
2019-06-01T04:12:49.385Z,12.76
2019-06-01T04:13:49.424Z,12.72
2019-06-01T04:14:49.362Z,12.72
2019-06-01T04:15:49.472Z,12.81
2019-06-01T04:16:49.340Z,12.87
2019-06-01T04:17:49.349Z,12.81
2019-06-01T04:18:49.316Z,12.94
2019-06-01T04:19:49.370Z,12.94
2019-06-01T04:20:49.311Z,12.98
2019-06-01T04:21:50.404Z,12.95
2019-06-01T04:22:49.273Z,13.05
2019-06-01T04:23:56.356Z,13.05
2019-06-01T04:24:49.249Z,13.03
2019-06-01T04:25:51.279Z,13.11
2019-06-01T04:26:49.227Z,13.09
2019-06-01T04:27:50.223Z,13.12
2019-06-01T04:28:49.209Z,13.19
2019-06-01T04:29:49.228Z,13.20
2019-06-01T04:30:49.199Z,13.26
2019-06-01T04:31:49.243Z,13.43
2019-06-01T04:32:50.482Z,13.46
2019-06-01T04:33:49.255Z,13.54
2019-06-01T04:34:49.142Z,13.54
2019-06-01T04:35:49.202Z,13.64
2019-06-01T04:36:49.119Z,13.71
2019-06-01T04:37:49.185Z,13.71
2019-06-01T04:38:49.093Z,13.79
2019-06-01T04:39:49.196Z,13.83
2019-06-01T04:40:49.086Z,13.93
2019-06-01T04:41:49.112Z,13.97
2019-06-01T04:42:49.075Z,14.05
2019-06-01T04:43:49.119Z,14.11
2019-06-01T04:44:49.028Z,14.18
2019-06-01T04:45:49.063Z,14.37
2019-06-01T04:46:49.010Z,14.34
2019-06-01T04:47:49.048Z,14.41
2019-06-01T04:48:48.985Z,14.52
2019-06-01T04:49:49.073Z,14.77
2019-06-01T04:50:48.987Z,14.70
2019-06-01T04:51:48.969Z,14.73
2019-06-01T04:52:48.938Z,14.85
2019-06-01T04:53:48.987Z,14.90
2019-06-01T04:54:48.917Z,15.02
2019-06-01T04:55:49.031Z,14.99
2019-06-01T04:56:48.897Z,15.07
2019-06-01T04:57:48.907Z,15.11
2019-06-01T04:58:48.871Z,15.12
2019-06-01T04:59:48.923Z,15.10
2019-06-01T05:00:48.869Z,15.18
2019-06-01T05:01:48.843Z,15.27
2019-06-01T05:02:56.578Z,15.18
2019-06-01T05:03:49.813Z,15.07
2019-06-01T05:04:48.913Z,15.11
2019-06-01T05:05:48.806Z,14.96
2019-06-01T05:06:49.896Z,14.90
2019-06-01T05:07:48.770Z,14.94
2019-06-01T05:08:48.790Z,14.86
2019-06-01T05:09:48.748Z,14.81
2019-06-01T05:10:51.794Z,14.89
2019-06-01T05:11:48.724Z,15.11
2019-06-01T05:12:50.757Z,15.27
2019-06-01T05:13:48.702Z,15.48
2019-06-01T05:14:48.719Z,15.70
2019-06-01T05:15:48.694Z,15.85
2019-06-01T05:16:48.733Z,15.92
2019-06-01T05:17:48.659Z,15.99
2019-06-01T05:18:48.745Z,16.03
2019-06-01T05:19:48.636Z,16.13
2019-06-01T05:20:48.707Z,16.36
2019-06-01T05:21:48.612Z,16.57
2019-06-01T05:22:48.674Z,16.32
2019-06-01T05:23:48.599Z,16.34
2019-06-01T05:24:48.687Z,16.50
2019-06-01T05:25:48.610Z,16.57
2019-06-01T05:26:48.605Z,16.44
2019-06-01T05:27:48.548Z,16.41
2019-06-01T05:28:48.607Z,16.58
2019-06-01T05:29:48.524Z,16.55
2019-06-01T05:30:48.621Z,16.65
2019-06-01T05:31:48.514Z,16.97
2019-06-01T05:32:48.537Z,17.05
2019-06-01T05:33:48.484Z,17.20
2019-06-01T05:34:48.545Z,17.12
2019-06-01T05:35:48.457Z,17.50
2019-06-01T05:36:48.623Z,17.50
2019-06-01T05:37:48.438Z,17.52
2019-06-01T05:38:48.479Z,17.46
2019-06-01T05:39:48.412Z,17.71
2019-06-01T05:40:48.488Z,17.91
2019-06-01T05:41:48.416Z,18.11
2019-06-01T05:42:48.397Z,18.08
2019-06-01T05:43:48.368Z,18.16
2019-06-01T05:44:48.410Z,18.23
2019-06-01T05:45:48.356Z,18.30
2019-06-01T05:46:48.459Z,18.63
2019-06-01T05:47:48.328Z,18.61
2019-06-01T05:48:48.339Z,18.64
2019-06-01T05:49:48.303Z,18.67
2019-06-01T05:50:48.348Z,18.79
2019-06-01T05:51:48.309Z,18.91
2019-06-01T05:52:48.363Z,19.24
2019-06-01T05:53:48.257Z,19.23
2019-06-01T05:54:48.276Z,19.29
2019-06-01T05:55:48.235Z,19.35
2019-06-01T05:56:48.321Z,19.47
2019-06-01T05:57:48.213Z,19.39
2019-06-01T05:58:49.224Z,19.24
2019-06-01T05:59:48.193Z,19.52
2019-06-01T06:00:48.212Z,19.55
2019-06-01T06:01:48.183Z,19.60
2019-06-01T06:02:48.226Z,20.03
2019-06-01T06:03:48.152Z,20.04
2019-06-01T06:04:48.240Z,20.56
2019-06-01T06:05:48.129Z,20.73
2019-06-01T06:06:48.184Z,20.68
2019-06-01T06:07:48.106Z,20.73
2019-06-01T06:08:48.164Z,20.92
2019-06-01T06:09:48.087Z,20.96
2019-06-01T06:10:48.178Z,20.85
2019-06-01T06:11:48.075Z,20.60
2019-06-01T06:12:48.092Z,21.07
2019-06-01T06:13:48.040Z,21.10
2019-06-01T06:14:48.105Z,21.08
2019-06-01T06:15:48.020Z,21.23
2019-06-01T06:16:48.054Z,21.41
2019-06-01T06:17:47.995Z,21.53
2019-06-01T06:18:48.027Z,21.74
2019-06-01T06:19:47.975Z,22.22
2019-06-01T06:20:48.052Z,22.21
2019-06-01T06:21:47.966Z,22.47
2019-06-01T06:22:47.953Z,22.07
2019-06-01T06:23:47.983Z,21.97
2019-06-01T06:24:47.973Z,21.62
2019-06-01T06:25:47.910Z,21.54
2019-06-01T06:26:48.013Z,21.63
2019-06-01T06:27:47.893Z,21.81
2019-06-01T06:28:47.892Z,21.83
2019-06-01T06:29:47.864Z,21.56
2019-06-01T06:30:47.905Z,21.69
2019-06-01T06:31:47.863Z,22.06
2019-06-01T06:32:47.922Z,22.07
2019-06-01T06:33:56.394Z,22.16
2019-06-01T06:34:48.804Z,22.16
2019-06-01T06:36:02.787Z,22.04
2019-06-01T06:36:47.798Z,22.06
2019-06-01T06:37:47.860Z,22.10
2019-06-01T06:38:47.773Z,22.21
2019-06-01T06:39:47.864Z,22.43
2019-06-01T06:40:47.758Z,22.21
2019-06-01T06:41:47.837Z,22.51
2019-06-01T06:42:47.720Z,23.10
2019-06-01T06:43:47.788Z,23.08
2019-06-01T06:44:47.700Z,23.10
2019-06-01T06:45:48.727Z,23.29
2019-06-01T06:46:47.693Z,23.39
2019-06-01T06:47:47.712Z,23.52
2019-06-01T06:48:47.662Z,23.13
2019-06-01T06:49:47.729Z,23.21
2019-06-01T06:50:47.636Z,23.17
2019-06-01T06:51:47.668Z,22.63
2019-06-01T06:52:47.618Z,22.77
2019-06-01T06:53:47.651Z,22.70
2019-06-01T06:54:47.590Z,22.96
2019-06-01T06:55:47.664Z,23.08
2019-06-01T06:56:47.606Z,23.04
2019-06-01T06:57:47.590Z,22.89
2019-06-01T06:58:47.558Z,22.84
2019-06-01T06:59:47.593Z,22.84
2019-06-01T07:00:47.591Z,22.41
2019-06-01T07:01:47.609Z,22.10
2019-06-01T07:02:47.526Z,22.03
2019-06-01T07:03:47.518Z,22.12
2019-06-01T07:04:47.498Z,22.44
2019-06-01T07:05:47.538Z,22.68
2019-06-01T07:06:47.460Z,22.34
2019-06-01T07:07:47.573Z,22.49
2019-06-01T07:08:49.014Z,22.19
2019-06-01T07:09:47.461Z,22.19
2019-06-01T07:10:47.418Z,22.51
2019-06-01T07:11:47.466Z,22.15
2019-06-01T07:12:47.418Z,22.18
2019-06-01T07:13:47.498Z,22.33
2019-06-01T07:14:47.387Z,22.77
2019-06-01T07:15:47.410Z,22.91
2019-06-01T07:16:47.357Z,23.08
2019-06-01T07:17:47.458Z,22.81
2019-06-01T07:18:47.337Z,22.78
2019-06-01T07:19:47.448Z,23.47
2019-06-01T07:20:47.303Z,23.47
2019-06-01T07:21:54.293Z,23.18
2019-06-01T07:22:47.311Z,23.06
2019-06-01T07:23:48.370Z,23.16
2019-06-01T07:24:47.281Z,23.20
2019-06-01T07:25:47.380Z,23.23
2019-06-01T07:26:47.243Z,23.36
2019-06-01T07:27:47.314Z,23.10
2019-06-01T07:28:47.230Z,22.98
2019-06-01T07:29:47.287Z,23.13
2019-06-01T07:30:50.469Z,23.40
2019-06-01T07:31:47.194Z,23.40
2019-06-01T07:32:47.183Z,22.91
2019-06-01T07:33:47.216Z,23.16
2019-06-01T07:34:47.152Z,23.39
2019-06-01T07:35:47.224Z,22.98
2019-06-01T07:36:47.146Z,22.70
2019-06-01T07:37:47.165Z,22.98
2019-06-01T07:38:47.106Z,22.86
2019-06-01T07:39:47.157Z,22.86
2019-06-01T07:40:47.081Z,23.11
2019-06-01T07:41:47.247Z,23.40
2019-06-01T07:42:47.073Z,23.37
2019-06-01T07:43:47.071Z,23.52
2019-06-01T07:44:47.038Z,23.42
2019-06-01T07:45:47.109Z,23.54
2019-06-01T07:46:47.060Z,23.36
2019-06-01T07:47:47.029Z,23.17
2019-06-01T07:48:47.003Z,23.34
2019-06-01T07:49:47.022Z,23.48
2019-06-01T07:50:46.969Z,23.81
2019-06-01T07:51:47.188Z,23.88
2019-06-01T07:52:46.961Z,24.18
2019-06-01T07:53:47.038Z,24.26
2019-06-01T07:54:46.937Z,24.22
2019-06-01T07:55:46.955Z,24.22
2019-06-01T07:56:46.910Z,23.95
2019-06-01T07:57:47.014Z,23.91
2019-06-01T07:58:46.885Z,24.09
2019-06-01T07:59:46.979Z,23.88
2019-06-01T08:00:46.862Z,23.81
2019-06-01T08:01:46.890Z,23.86
2019-06-01T08:02:46.874Z,23.91
2019-06-01T08:03:47.928Z,23.91
2019-06-01T08:04:53.358Z,24.21
2019-06-01T08:05:54.805Z,24.09
2019-06-01T08:06:48.560Z,24.18
2019-06-01T08:07:48.886Z,24.25
2019-06-01T08:08:46.791Z,24.14
2019-06-01T08:09:48.808Z,24.34
2019-06-01T08:10:46.752Z,24.32
2019-06-01T08:11:46.753Z,24.59
2019-06-01T08:12:46.732Z,24.04
2019-06-01T08:13:46.795Z,24.41
2019-06-01T08:14:46.710Z,25.24
2019-06-01T08:15:46.801Z,25.74
2019-06-01T08:16:46.685Z,25.76
2019-06-01T08:17:46.701Z,25.91
2019-06-01T08:18:46.681Z,25.36
2019-06-01T08:19:46.704Z,25.37
2019-06-01T08:20:46.641Z,25.31
2019-06-01T08:21:46.717Z,25.16
2019-06-01T08:22:46.644Z,25.21
2019-06-01T08:23:46.659Z,25.22
2019-06-01T08:24:46.603Z,25.78
2019-06-01T08:25:46.643Z,25.58
2019-06-01T08:26:46.576Z,25.15
2019-06-01T08:27:46.658Z,24.89
2019-06-01T08:28:46.574Z,25.04
2019-06-01T08:29:46.578Z,25.43
2019-06-01T08:30:46.536Z,26.19
2019-06-01T08:31:46.584Z,26.64
2019-06-01T08:32:46.520Z,26.73
2019-06-01T08:33:46.629Z,26.49
2019-06-01T08:34:46.502Z,26.98
2019-06-01T08:35:46.510Z,27.53
2019-06-01T08:36:46.469Z,26.89
2019-06-01T08:37:46.531Z,26.63
2019-06-01T08:38:46.475Z,26.89
2019-06-01T08:39:46.534Z,26.45
2019-06-01T08:40:46.434Z,26.98
2019-06-01T08:41:46.458Z,27.45
2019-06-01T08:42:46.404Z,28.13
2019-06-01T08:43:46.498Z,28.01
2019-06-01T08:44:46.388Z,27.40
2019-06-01T08:45:46.472Z,28.00
2019-06-01T08:46:46.378Z,26.91
2019-06-01T08:47:46.383Z,27.08
2019-06-01T08:48:46.352Z,27.08
2019-06-01T08:49:48.450Z,27.55
2019-06-01T08:50:46.436Z,27.78
2019-06-01T08:51:48.357Z,27.48
2019-06-01T08:52:46.314Z,27.38
2019-06-01T08:53:46.353Z,27.37
2019-06-01T08:54:46.272Z,26.98
2019-06-01T08:55:48.284Z,26.68
2019-06-01T08:56:46.256Z,26.67
2019-06-01T08:57:47.288Z,26.67
2019-06-01T08:58:46.265Z,26.78
2019-06-01T08:59:46.266Z,26.29
2019-06-01T09:00:46.211Z,26.73
2019-06-01T09:01:46.284Z,27.28
2019-06-01T09:02:46.192Z,27.67
2019-06-01T09:03:47.061Z,27.58
2019-06-01T09:04:46.184Z,27.72
2019-06-01T09:05:46.199Z,27.00
2019-06-01T09:06:46.147Z,27.41
2019-06-01T09:07:46.214Z,26.96
2019-06-01T09:08:46.133Z,27.11
2019-06-01T09:09:46.157Z,26.78
2019-06-01T09:10:46.102Z,26.48
2019-06-01T09:11:46.143Z,26.52
2019-06-01T09:12:46.079Z,27.28
2019-06-01T09:13:46.161Z,27.40
2019-06-01T09:14:46.077Z,26.63
2019-06-01T09:15:46.082Z,26.64
2019-06-01T09:16:46.044Z,27.33
2019-06-01T09:17:46.089Z,27.52
2019-06-01T09:18:46.016Z,27.64
2019-06-01T09:19:46.125Z,27.86
2019-06-01T09:20:46.007Z,27.83
2019-06-01T09:21:46.008Z,27.66
2019-06-01T09:22:48.197Z,28.27
2019-06-01T09:23:46.020Z,28.72
2019-06-01T09:24:45.963Z,28.72
2019-06-01T09:25:46.032Z,28.03
2019-06-01T09:26:45.947Z,27.08
2019-06-01T09:27:45.928Z,27.13
2019-06-01T09:28:45.917Z,26.67
2019-06-01T09:29:45.988Z,26.92
2019-06-01T09:30:45.897Z,27.10
2019-06-01T09:31:45.976Z,27.26
2019-06-01T09:32:45.874Z,27.43
2019-06-01T09:34:00.847Z,27.61
2019-06-01T09:34:45.859Z,28.03
2019-06-01T09:36:07.913Z,28.34
2019-06-01T09:36:45.838Z,28.62
2019-06-01T09:37:46.851Z,28.87
2019-06-01T09:38:45.816Z,28.70
2019-06-01T09:39:45.851Z,28.70
2019-06-01T09:40:45.858Z,29.22
2019-06-01T09:41:45.849Z,28.55
2019-06-01T09:42:45.766Z,27.64
2019-06-01T09:43:46.773Z,27.26
2019-06-01T09:44:45.786Z,28.04
2019-06-01T09:45:45.773Z,28.82
2019-06-01T09:46:45.730Z,28.10
2019-06-01T09:47:46.167Z,27.76
2019-06-01T09:48:45.714Z,27.88
2019-06-01T09:49:45.821Z,27.76
2019-06-01T09:50:45.687Z,27.44
2019-06-01T09:51:45.704Z,26.82
2019-06-01T09:52:45.675Z,26.59
2019-06-01T09:53:45.711Z,26.44
2019-06-01T09:54:45.656Z,26.83
2019-06-01T09:55:45.725Z,27.10
2019-06-01T09:56:45.629Z,27.11
2019-06-01T09:57:45.651Z,26.68
2019-06-01T09:58:45.604Z,26.67
2019-06-01T09:59:45.693Z,26.59
2019-06-01T10:00:45.583Z,26.24
2019-06-01T10:01:45.695Z,26.51
2019-06-01T10:02:45.581Z,26.67
2019-06-01T10:03:45.585Z,26.41
2019-06-01T10:04:45.546Z,25.67
2019-06-01T10:06:00.874Z,25.49
2019-06-01T10:06:46.514Z,25.30
2019-06-01T10:07:45.612Z,25.37
2019-06-01T10:08:45.509Z,25.48
2019-06-01T10:09:45.545Z,25.67
2019-06-01T10:10:45.474Z,26.36
2019-06-01T10:11:45.539Z,27.15
2019-06-01T10:12:45.455Z,26.97
2019-06-01T10:13:45.553Z,27.44
2019-06-01T10:14:45.452Z,27.68
2019-06-01T10:15:45.460Z,28.38
2019-06-01T10:16:45.411Z,28.22
2019-06-01T10:17:45.482Z,27.94
2019-06-01T10:18:45.388Z,28.09
2019-06-01T10:20:00.893Z,27.76
2019-06-01T10:20:45.364Z,27.44
2019-06-01T10:21:46.419Z,27.81
2019-06-01T10:22:45.349Z,27.64
2019-06-01T10:23:49.638Z,28.08
2019-06-01T10:24:45.337Z,28.35
2019-06-01T10:25:46.345Z,27.78
2019-06-01T10:26:45.305Z,27.35
2019-06-01T10:27:45.336Z,27.19
2019-06-01T10:28:45.299Z,27.76
2019-06-01T10:29:45.374Z,28.06
2019-06-01T10:30:45.315Z,28.00
2019-06-01T10:31:45.355Z,28.64
2019-06-01T10:32:45.239Z,29.22
2019-06-01T10:33:45.274Z,29.10
2019-06-01T10:34:45.239Z,28.34
2019-06-01T10:35:45.281Z,27.29
2019-06-01T10:36:45.198Z,27.16
2019-06-01T10:37:45.294Z,27.44
2019-06-01T10:38:45.227Z,27.88
2019-06-01T10:39:45.241Z,28.27
2019-06-01T10:40:45.151Z,28.00
2019-06-01T10:41:45.221Z,28.46
2019-06-01T10:42:45.143Z,28.89
2019-06-01T10:43:45.234Z,29.28
2019-06-01T10:44:46.000Z,29.21
2019-06-01T10:45:45.152Z,28.70
2019-06-01T10:46:45.096Z,28.96
2019-06-01T10:47:45.168Z,28.70
2019-06-01T10:48:45.070Z,28.77
2019-06-01T10:49:45.106Z,28.83
2019-06-01T10:50:45.048Z,28.40
2019-06-01T10:51:45.089Z,28.10
2019-06-01T10:52:45.028Z,28.45
2019-06-01T10:53:45.104Z,28.38
2019-06-01T10:54:45.025Z,27.60
2019-06-01T10:55:45.126Z,27.57
2019-06-01T10:56:44.988Z,28.31
2019-06-01T10:57:45.037Z,28.25
2019-06-01T10:58:59.218Z,28.50
2019-06-01T10:59:45.970Z,28.77
2019-06-01T11:00:50.652Z,28.96
2019-06-01T11:01:45.943Z,29.03
2019-06-01T11:02:44.956Z,28.70
2019-06-01T11:03:44.921Z,28.67
2019-06-01T11:04:45.002Z,28.34
2019-06-01T11:05:44.895Z,28.40
2019-06-01T11:06:48.695Z,28.53
2019-06-01T11:07:44.876Z,29.00
2019-06-01T11:08:44.917Z,29.20
2019-06-01T11:09:44.905Z,29.18
2019-06-01T11:10:51.879Z,29.39
2019-06-01T11:11:44.833Z,29.39
2019-06-01T11:12:45.850Z,28.70
2019-06-01T11:13:44.814Z,28.18
2019-06-01T11:14:44.844Z,28.23
2019-06-01T11:15:44.810Z,28.78
2019-06-01T11:16:44.849Z,28.75
2019-06-01T11:17:44.801Z,29.25
2019-06-01T11:18:44.864Z,29.34
2019-06-01T11:19:44.764Z,29.42
2019-06-01T11:20:44.821Z,29.20
2019-06-01T11:21:44.734Z,29.65
2019-06-01T11:22:44.796Z,30.11
2019-06-01T11:23:46.534Z,29.76
2019-06-01T11:24:44.803Z,29.13
2019-06-01T11:25:44.707Z,29.18
2019-06-01T11:26:44.712Z,29.73
2019-06-01T11:27:44.675Z,29.81
2019-06-01T11:28:44.750Z,29.49
2019-06-01T11:29:51.059Z,29.32
2019-06-01T11:30:45.716Z,29.24
2019-06-01T11:31:44.628Z,29.31
2019-06-01T11:32:45.190Z,29.37
2019-06-01T11:33:44.608Z,30.02
2019-06-01T11:34:44.670Z,30.69
2019-06-01T11:35:45.398Z,30.63
2019-06-01T11:37:03.540Z,30.65
2019-06-01T11:37:45.560Z,31.05
2019-06-01T11:38:45.022Z,30.85
2019-06-01T11:39:44.862Z,31.37
2019-06-01T11:40:44.881Z,31.13
2019-06-01T11:41:44.827Z,30.16
2019-06-01T11:42:45.151Z,30.10
2019-06-01T11:43:46.142Z,30.33
2019-06-01T11:44:44.895Z,30.46
2019-06-01T11:45:45.206Z,30.96
2019-06-01T11:46:45.098Z,31.04
2019-06-01T11:47:45.088Z,31.25
2019-06-01T11:48:45.403Z,31.63
2019-06-01T11:49:45.080Z,31.66
2019-06-01T11:50:45.361Z,30.69
2019-06-01T11:51:45.303Z,30.73
2019-06-01T11:52:45.512Z,31.23
2019-06-01T11:53:45.654Z,31.45
2019-06-01T11:54:45.465Z,31.66
2019-06-01T11:55:45.559Z,32.04
2019-06-01T11:56:51.377Z,31.86
2019-06-01T11:57:45.783Z,31.23
2019-06-01T11:58:46.365Z,31.04
2019-06-01T11:59:45.596Z,31.18
2019-06-01T12:00:45.797Z,31.57
2019-06-01T12:01:44.307Z,31.39
2019-06-01T12:02:44.347Z,31.07
2019-06-01T12:03:44.289Z,31.50
2019-06-01T12:04:44.364Z,31.64
2019-06-01T12:05:44.294Z,31.37
2019-06-01T12:06:44.372Z,30.35
2019-06-01T12:07:44.245Z,30.63
2019-06-01T12:08:44.285Z,30.76
2019-06-01T12:09:44.229Z,31.02
2019-06-01T12:10:45.298Z,31.11
2019-06-01T12:11:44.344Z,30.96
2019-06-01T12:12:44.449Z,30.78
2019-06-01T12:13:44.520Z,31.35
2019-06-01T12:14:44.496Z,31.33
2019-06-01T12:15:44.468Z,30.63
2019-06-01T12:16:44.773Z,30.35
2019-06-01T12:17:44.881Z,30.43
2019-06-01T12:18:44.714Z,30.80
2019-06-01T12:19:44.743Z,30.86
2019-06-01T12:20:44.942Z,31.15
2019-06-01T12:21:45.229Z,31.64
2019-06-01T12:22:45.134Z,31.86
2019-06-01T12:23:45.519Z,31.97
2019-06-01T12:24:45.086Z,32.20
2019-06-01T12:25:44.430Z,32.61
2019-06-01T12:26:45.401Z,32.81
2019-06-01T12:27:44.041Z,32.75
2019-06-01T12:28:44.113Z,32.83
2019-06-01T12:29:44.035Z,32.83
2019-06-01T12:30:44.073Z,32.91
2019-06-01T12:31:43.999Z,33.50
2019-06-01T12:32:44.222Z,33.60
2019-06-01T12:33:44.241Z,33.88
2019-06-01T12:34:44.107Z,33.95
2019-06-01T12:35:44.083Z,33.89
2019-06-01T12:36:44.613Z,33.77
2019-06-01T12:38:02.114Z,33.75
2019-06-01T12:38:44.931Z,33.54
2019-06-01T12:39:44.438Z,32.93
2019-06-01T12:40:43.907Z,32.66
2019-06-01T12:41:47.865Z,32.73
2019-06-01T12:42:44.226Z,32.81
2019-06-01T12:43:51.917Z,32.73
2019-06-01T12:44:43.870Z,32.91
2019-06-01T12:46:05.426Z,32.93
2019-06-01T12:46:44.865Z,33.61
2019-06-01T12:47:48.333Z,33.95
2019-06-01T12:48:44.823Z,34.28
2019-06-01T12:49:44.104Z,33.97
2019-06-01T12:50:47.753Z,33.54
2019-06-01T12:51:44.915Z,33.48